createdAt,value
2022-09-28T00:01:16.227Z,55.83
2022-09-28T00:03:44.487Z,55.78
2022-09-28T00:06:14.726Z,55.92
2022-09-28T00:08:41.904Z,55.96
2022-09-28T00:11:12.567Z,56.09
2022-09-28T00:13:40.599Z,56.13
2022-09-28T00:16:11.017Z,55.88
2022-09-28T00:18:38.199Z,56.01
2022-09-28T00:21:09.099Z,56.16
2022-09-28T00:23:57.291Z,56.18
2022-09-28T00:26:24.643Z,56.10
2022-09-28T00:28:55.868Z,56.12
2022-09-28T00:31:23.583Z,56.25
2022-09-28T00:33:52.016Z,56.10
2022-09-28T00:36:19.648Z,55.97
2022-09-28T00:38:46.732Z,55.95
2022-09-28T00:41:14.434Z,56.00
2022-09-28T00:43:41.720Z,56.15
2022-09-28T00:46:35.888Z,55.91
2022-09-28T00:49:09.560Z,55.95
2022-09-28T00:51:38.995Z,56.15
2022-09-28T00:54:09.608Z,56.00
2022-09-28T00:56:40.620Z,55.88
2022-09-28T00:59:09.168Z,56.17
2022-09-28T01:01:36.987Z,56.04
2022-09-28T01:04:05.150Z,56.06
2022-09-28T01:06:35.032Z,56.01
2022-09-28T01:09:07.717Z,56.21
2022-09-28T01:11:38.026Z,56.11
2022-09-28T01:14:08.927Z,56.49
2022-09-28T01:17:00.328Z,56.15
2022-09-28T01:19:45.716Z,56.48
2022-09-28T01:22:36.312Z,56.48
2022-09-28T01:25:25.313Z,56.51
2022-09-28T01:28:14.592Z,56.62
2022-09-28T01:30:51.622Z,56.73
2022-09-28T01:33:27.171Z,56.49
2022-09-28T01:36:00.067Z,56.60
2022-09-28T01:38:36.340Z,56.77
2022-09-28T01:41:04.826Z,56.75
2022-09-28T01:43:36.850Z,56.86
2022-09-28T01:46:16.743Z,57.07
2022-09-28T01:48:46.621Z,56.83
2022-09-28T01:51:26.199Z,57.00
2022-09-28T01:53:57.827Z,57.03
2022-09-28T01:56:47.794Z,57.17
2022-09-28T01:59:22.751Z,57.21
2022-09-28T02:01:57.799Z,57.35
2022-09-28T02:04:36.414Z,57.17
2022-09-28T02:07:10.612Z,57.38
2022-09-28T02:09:46.236Z,57.29
2022-09-28T02:12:25.009Z,57.34
2022-09-28T02:14:59.366Z,57.26
2022-09-28T02:17:26.238Z,57.30
2022-09-28T02:19:53.350Z,57.48
2022-09-28T02:22:28.895Z,57.48
2022-09-28T02:24:58.575Z,57.56
2022-09-28T02:27:35.779Z,57.46
2022-09-28T02:30:05.378Z,57.58
2022-09-28T02:32:35.532Z,57.65
2022-09-28T02:35:02.422Z,57.67
2022-09-28T02:37:32.539Z,57.64
2022-09-28T02:39:59.478Z,57.58
2022-09-28T02:42:47.620Z,57.51
2022-09-28T02:45:52.889Z,57.61
2022-09-28T02:48:42.660Z,57.52
2022-09-28T02:51:32.190Z,57.53
2022-09-28T02:54:36.550Z,57.64
2022-09-28T02:57:30.926Z,57.62
2022-09-28T03:00:09.443Z,57.67
2022-09-28T03:03:00.187Z,57.71
2022-09-28T03:06:05.506Z,57.91
2022-09-28T03:08:45.317Z,57.91
2022-09-28T03:11:29.071Z,57.91
2022-09-28T03:13:56.813Z,57.84
2022-09-28T03:16:23.811Z,57.71
2022-09-28T03:18:50.805Z,57.80
2022-09-28T03:21:17.694Z,57.70
2022-09-28T03:23:44.573Z,57.86
2022-09-28T03:26:12.896Z,57.71
2022-09-28T03:28:40.690Z,57.76
2022-09-28T03:31:07.724Z,57.81
2022-09-28T03:33:34.955Z,57.96
2022-09-28T03:36:02.030Z,57.85
2022-09-28T03:38:29.029Z,57.72
2022-09-28T03:41:00.513Z,57.83
2022-09-28T03:43:29.982Z,57.70
2022-09-28T03:45:59.195Z,57.91
2022-09-28T03:48:32.692Z,58.10
2022-09-28T03:51:02.765Z,57.81
2022-09-28T03:53:32.657Z,57.94
2022-09-28T03:56:04.765Z,58.10
2022-09-28T03:58:31.883Z,58.09
2022-09-28T04:01:06.485Z,58.15
2022-09-28T04:03:33.477Z,58.12
2022-09-28T04:06:00.767Z,58.08
2022-09-28T04:08:28.067Z,58.46
2022-09-28T04:10:59.429Z,58.27
2022-09-28T04:13:27.172Z,58.43
2022-09-28T04:15:56.043Z,58.32
2022-09-28T04:18:23.996Z,58.37
2022-09-28T04:21:00.969Z,58.36
2022-09-28T04:23:28.475Z,58.17
2022-09-28T04:25:55.339Z,58.38
2022-09-28T04:28:40.573Z,58.29
2022-09-28T04:31:19.001Z,58.48
2022-09-28T04:33:46.154Z,58.41
2022-09-28T04:36:13.162Z,58.45
2022-09-28T04:38:52.847Z,58.48
2022-09-28T04:41:22.695Z,58.40
2022-09-28T04:43:50.730Z,58.32
2022-09-28T04:46:17.962Z,58.31
2022-09-28T04:48:45.441Z,58.31
2022-09-28T04:51:12.297Z,58.42
2022-09-28T04:53:39.166Z,58.63
2022-09-28T04:56:08.888Z,58.35
2022-09-28T04:58:36.627Z,58.53
2022-09-28T05:01:07.261Z,58.43
2022-09-28T05:03:34.682Z,58.69
2022-09-28T05:06:01.849Z,58.81
2022-09-28T05:08:29.514Z,58.79
2022-09-28T05:11:10.310Z,58.65
2022-09-28T05:13:42.530Z,58.49
2022-09-28T05:16:10.529Z,58.77
2022-09-28T05:18:37.673Z,58.47
2022-09-28T05:21:09.240Z,59.12
2022-09-28T05:23:36.081Z,58.81
2022-09-28T05:26:03.160Z,58.83
2022-09-28T05:28:32.411Z,58.98
2022-09-28T05:31:04.287Z,59.02
2022-09-28T05:33:32.731Z,59.05
2022-09-28T05:36:02.087Z,58.85
2022-09-28T05:38:30.117Z,58.87
2022-09-28T05:40:58.079Z,59.39
2022-09-28T05:43:25.177Z,59.01
2022-09-28T05:45:55.703Z,59.43
2022-09-28T05:48:23.423Z,59.25
2022-09-28T05:50:53.519Z,59.50
2022-09-28T05:53:21.176Z,59.25
2022-09-28T05:55:48.426Z,59.19
2022-09-28T05:58:15.377Z,59.37
2022-09-28T06:00:42.512Z,59.38
2022-09-28T06:03:13.580Z,59.68
2022-09-28T06:05:40.749Z,59.25
2022-09-28T06:08:10.633Z,59.49
2022-09-28T06:10:37.953Z,59.43
2022-09-28T06:13:05.014Z,59.33
2022-09-28T06:15:33.923Z,59.45
2022-09-28T06:18:02.807Z,59.29
2022-09-28T06:20:33.330Z,59.35
2022-09-28T06:23:00.224Z,59.35
2022-09-28T06:25:30.331Z,59.34
2022-09-28T06:28:09.914Z,59.40
2022-09-28T06:30:38.852Z,59.66
2022-09-28T06:33:08.127Z,59.54
2022-09-28T06:35:35.442Z,59.57
2022-09-28T06:38:02.893Z,59.59
2022-09-28T06:40:29.972Z,59.59
2022-09-28T06:43:01.794Z,59.67
2022-09-28T06:45:30.266Z,59.64
2022-09-28T06:48:01.300Z,59.48
2022-09-28T06:50:32.601Z,59.29
2022-09-28T06:53:01.107Z,59.53
2022-09-28T06:55:28.828Z,59.42
2022-09-28T06:58:07.243Z,59.28
2022-09-28T07:00:36.856Z,59.70
2022-09-28T07:03:06.476Z,59.48
2022-09-28T07:05:37.135Z,59.49
2022-09-28T07:08:04.869Z,59.43
2022-09-28T07:10:32.535Z,59.64
2022-09-28T07:13:05.149Z,59.45
2022-09-28T07:15:32.843Z,59.52
2022-09-28T07:18:03.576Z,59.34
2022-09-28T07:20:36.343Z,59.68
2022-09-28T07:23:18.332Z,59.56
2022-09-28T07:25:48.173Z,59.48
2022-09-28T07:28:16.006Z,59.66
2022-09-28T07:30:45.073Z,59.49
2022-09-28T07:33:14.806Z,59.62
2022-09-28T07:35:43.287Z,59.55
2022-09-28T07:38:11.316Z,59.73
2022-09-28T07:40:58.641Z,59.86
2022-09-28T07:43:25.815Z,59.85
2022-09-28T07:45:57.207Z,59.86
2022-09-28T07:48:24.270Z,60.03
2022-09-28T07:50:52.913Z,59.87
2022-09-28T07:53:21.114Z,60.10
2022-09-28T07:55:55.958Z,60.08
2022-09-28T07:58:23.447Z,60.34
2022-09-28T08:00:51.209Z,60.07
2022-09-28T08:03:20.111Z,60.19
2022-09-28T08:05:47.693Z,59.92
2022-09-28T08:08:15.640Z,60.20
2022-09-28T08:10:46.889Z,60.07
2022-09-28T08:13:15.477Z,60.30
2022-09-28T08:15:42.921Z,60.24
2022-09-28T08:18:11.100Z,60.25
2022-09-28T08:20:56.440Z,60.11
2022-09-28T08:23:24.764Z,60.35
2022-09-28T08:25:55.815Z,60.38
2022-09-28T08:28:24.494Z,60.12
2022-09-28T08:30:52.081Z,60.24
2022-09-28T08:33:23.118Z,60.19
2022-09-28T08:36:01.328Z,60.10
2022-09-28T08:38:30.144Z,60.21
2022-09-28T08:41:21.758Z,60.28
2022-09-28T08:43:56.314Z,60.24
2022-09-28T08:46:27.273Z,60.18
2022-09-28T08:49:23.665Z,60.04
2022-09-28T08:52:00.416Z,60.12
2022-09-28T08:54:45.415Z,60.03
2022-09-28T08:57:18.505Z,60.14
2022-09-28T09:00:00.490Z,60.50
2022-09-28T09:02:40.017Z,60.11
2022-09-28T09:05:15.113Z,60.48
2022-09-28T09:08:01.016Z,59.88
2022-09-28T09:10:39.276Z,59.68
2022-09-28T09:13:34.123Z,59.76
2022-09-28T09:16:19.461Z,60.07
2022-09-28T09:18:59.407Z,60.01
2022-09-28T09:21:42.018Z,59.97
2022-09-28T09:24:32.205Z,60.12
2022-09-28T09:27:14.717Z,60.26
2022-09-28T09:29:51.977Z,60.22
2022-09-28T09:33:18.378Z,59.96
2022-09-28T09:36:09.621Z,60.35
2022-09-28T09:38:58.799Z,60.23
2022-09-28T09:41:46.040Z,60.13
2022-09-28T09:44:34.400Z,60.06
2022-09-28T09:47:12.063Z,60.23
2022-09-28T09:50:20.785Z,60.21
2022-09-28T09:52:49.880Z,60.08
2022-09-28T09:55:37.157Z,60.31
2022-09-28T09:58:38.858Z,60.25
2022-09-28T10:01:14.342Z,59.79
2022-09-28T10:03:46.477Z,59.87
2022-09-28T10:06:17.718Z,59.52
2022-09-28T10:08:49.232Z,59.98
2022-09-28T10:11:22.288Z,59.47
2022-09-28T10:13:49.674Z,59.46
2022-09-28T10:16:19.130Z,59.80
2022-09-28T10:18:46.561Z,60.23
2022-09-28T10:21:20.956Z,60.07
2022-09-28T10:23:55.455Z,59.76
2022-09-28T10:26:37.953Z,60.14
2022-09-28T10:29:16.362Z,59.67
2022-09-28T10:31:54.502Z,59.59
2022-09-28T10:34:31.225Z,59.79
2022-09-28T10:37:01.698Z,59.44
2022-09-28T10:39:40.335Z,59.60
2022-09-28T10:42:13.937Z,59.75
2022-09-28T10:45:01.397Z,59.96
2022-09-28T10:47:33.320Z,59.74
2022-09-28T10:50:01.177Z,59.83
2022-09-28T10:52:41.925Z,59.83
2022-09-28T10:55:27.248Z,59.74
2022-09-28T10:57:54.951Z,59.69
2022-09-28T11:00:41.133Z,59.51
2022-09-28T11:03:23.329Z,59.71
2022-09-28T11:06:01.048Z,59.79
2022-09-28T11:08:37.673Z,59.83
2022-09-28T11:11:09.327Z,59.79
2022-09-28T11:13:50.302Z,59.95
2022-09-28T11:16:26.995Z,59.96
2022-09-28T11:18:54.344Z,59.96
2022-09-28T11:21:27.680Z,59.80
2022-09-28T11:24:14.442Z,60.03
2022-09-28T11:26:53.178Z,59.80
2022-09-28T11:29:22.548Z,59.96
2022-09-28T11:31:49.982Z,60.04
2022-09-28T11:34:41.507Z,60.04
2022-09-28T11:37:27.877Z,60.08
2022-09-28T11:40:03.885Z,60.04
2022-09-28T11:42:58.657Z,59.92
2022-09-28T11:45:44.010Z,59.90
2022-09-28T11:48:16.542Z,59.99
2022-09-28T11:50:53.818Z,60.48
2022-09-28T11:53:48.007Z,60.61
2022-09-28T11:56:36.255Z,60.87
2022-09-28T11:59:18.538Z,60.60
2022-09-28T12:02:11.331Z,60.79
2022-09-28T12:04:38.465Z,60.74
2022-09-28T12:07:38.241Z,60.67
2022-09-28T12:10:17.641Z,60.77
2022-09-28T12:12:48.575Z,61.09
2022-09-28T12:16:23.054Z,60.96
2022-09-28T12:18:44.960Z,61.12
2022-09-28T12:21:17.929Z,60.88
2022-09-28T12:23:47.157Z,60.99
2022-09-28T12:26:37.278Z,60.43
2022-09-28T12:29:23.976Z,60.39
2022-09-28T12:32:00.163Z,60.04
2022-09-28T12:34:27.377Z,60.23
2022-09-28T12:37:11.571Z,60.11
2022-09-28T12:39:57.110Z,60.41
2022-09-28T12:42:56.316Z,60.23
2022-09-28T12:46:07.036Z,60.09
2022-09-28T12:49:36.764Z,60.09
2022-09-28T12:51:54.300Z,59.99
2022-09-28T12:54:31.912Z,59.91
2022-09-28T12:57:29.983Z,59.89
2022-09-28T13:00:06.157Z,60.07
2022-09-28T13:02:45.786Z,59.99
2022-09-28T13:06:00.617Z,59.96
2022-09-28T13:08:53.550Z,60.07
2022-09-28T13:11:41.898Z,60.05
2022-09-28T13:14:30.246Z,60.01
2022-09-28T13:17:18.739Z,59.89
2022-09-28T13:19:56.337Z,59.86
2022-09-28T13:22:58.380Z,59.92
2022-09-28T13:25:29.597Z,59.74
2022-09-28T13:28:01.479Z,59.98
2022-09-28T13:30:29.353Z,59.62
2022-09-28T13:32:58.412Z,59.78
2022-09-28T13:35:26.152Z,59.78
2022-09-28T13:38:18.155Z,59.88
2022-09-28T13:41:04.007Z,59.80
2022-09-28T13:44:11.746Z,59.88
2022-09-28T13:47:00.663Z,59.70
2022-09-28T13:49:45.770Z,59.70
2022-09-28T13:52:30.763Z,59.64
2022-09-28T13:55:19.041Z,59.78
2022-09-28T13:57:49.164Z,59.69
2022-09-28T14:00:35.046Z,59.64
2022-09-28T14:03:05.123Z,59.59
2022-09-28T14:05:41.954Z,59.63
2022-09-28T14:08:08.987Z,59.63
2022-09-28T14:10:53.179Z,59.63
2022-09-28T14:13:42.102Z,59.55
2022-09-28T14:16:24.310Z,59.94
2022-09-28T14:18:56.942Z,59.87
2022-09-28T14:21:45.356Z,59.70
2022-09-28T14:24:23.723Z,59.82
2022-09-28T14:27:03.556Z,59.88
2022-09-28T14:29:34.209Z,59.70
2022-09-28T14:32:25.787Z,59.69
2022-09-28T14:35:04.939Z,59.67
2022-09-28T14:37:58.135Z,59.69
2022-09-28T14:40:49.777Z,59.59
2022-09-28T14:43:36.865Z,59.79
2022-09-28T14:46:15.749Z,59.75
2022-09-28T14:48:50.640Z,59.98
2022-09-28T14:51:44.376Z,59.85
2022-09-28T14:54:11.414Z,59.79
2022-09-28T14:56:59.246Z,59.98
2022-09-28T14:59:34.863Z,59.98
2022-09-28T15:02:11.087Z,60.05
2022-09-28T15:04:43.769Z,59.97
2022-09-28T15:07:30.788Z,59.93
2022-09-28T15:09:58.815Z,60.49
2022-09-28T15:12:29.125Z,60.22
2022-09-28T15:14:56.172Z,60.21
2022-09-28T15:17:45.674Z,60.27
2022-09-28T15:20:26.898Z,60.24
2022-09-28T15:22:57.646Z,59.93
2022-09-28T15:25:32.735Z,60.30
2022-09-28T15:28:18.267Z,60.25
2022-09-28T15:30:46.022Z,60.33
2022-09-28T15:33:52.250Z,60.13
2022-09-28T15:36:26.709Z,60.47
2022-09-28T15:39:17.231Z,60.38
2022-09-28T15:41:46.431Z,60.21
2022-09-28T15:44:13.582Z,60.11
2022-09-28T15:46:44.723Z,60.28
2022-09-28T15:49:24.719Z,60.22
2022-09-28T15:51:55.747Z,60.17
2022-09-28T15:54:29.394Z,60.23
2022-09-28T15:57:02.926Z,60.38
2022-09-28T15:59:35.099Z,60.39
2022-09-28T16:02:10.292Z,60.30
2022-09-28T16:04:50.875Z,60.36
2022-09-28T16:07:21.551Z,60.35
2022-09-28T16:09:58.813Z,60.23
2022-09-28T16:12:49.081Z,60.06
2022-09-28T16:15:31.311Z,60.15
2022-09-28T16:18:04.586Z,59.92
2022-09-28T16:20:36.701Z,60.03
2022-09-28T16:23:18.261Z,60.23
2022-09-28T16:26:12.066Z,59.79
2022-09-28T16:28:39.344Z,60.13
2022-09-28T16:31:24.873Z,60.18
2022-09-28T16:34:01.789Z,60.24
2022-09-28T16:36:39.889Z,60.21
2022-09-28T16:39:06.939Z,60.00
2022-09-28T16:41:34.068Z,59.85
2022-09-28T16:44:03.308Z,59.74
2022-09-28T16:46:39.724Z,59.59
2022-09-28T16:49:07.786Z,59.52
2022-09-28T16:51:35.009Z,59.44
2022-09-28T16:54:36.821Z,58.77
2022-09-28T16:57:06.629Z,58.72
2022-09-28T16:59:34.315Z,58.56
2022-09-28T17:02:01.498Z,58.40
2022-09-28T17:04:30.172Z,58.32
2022-09-28T17:06:58.712Z,58.24
2022-09-28T17:09:26.358Z,57.88
2022-09-28T17:11:58.246Z,57.85
2022-09-28T17:14:25.547Z,57.74
2022-09-28T17:17:13.817Z,57.65
2022-09-28T17:19:41.436Z,57.41
2022-09-28T17:22:11.775Z,57.44
2022-09-28T17:24:38.784Z,57.41
2022-09-28T17:27:07.259Z,57.23
2022-09-28T17:29:34.261Z,57.11
2022-09-28T17:32:01.459Z,57.02
2022-09-28T17:34:29.147Z,56.96
2022-09-28T17:36:57.315Z,56.81
2022-09-28T17:39:25.505Z,57.09
2022-09-28T17:41:52.748Z,56.82
2022-09-28T17:44:20.261Z,56.74
2022-09-28T17:46:49.304Z,57.09
2022-09-28T17:49:17.444Z,56.76
2022-09-28T17:51:44.613Z,57.04
2022-09-28T17:54:13.446Z,56.97
2022-09-28T17:56:40.778Z,57.04
2022-09-28T17:59:13.160Z,57.09
2022-09-28T18:01:43.493Z,57.04
2022-09-28T18:04:19.179Z,56.39
2022-09-28T18:06:56.151Z,56.18
2022-09-28T18:09:29.014Z,56.05
2022-09-28T18:12:01.922Z,55.69
2022-09-28T18:14:30.912Z,56.13
2022-09-28T18:16:58.690Z,56.07
2022-09-28T18:19:31.708Z,56.07
2022-09-28T18:21:59.746Z,56.11
2022-09-28T18:24:27.396Z,56.23
2022-09-28T18:26:55.043Z,56.37
2022-09-28T18:29:22.556Z,56.30
2022-09-28T18:31:54.279Z,56.39
2022-09-28T18:34:24.785Z,56.48
2022-09-28T18:36:52.657Z,56.46
2022-09-28T18:39:20.597Z,56.60
2022-09-28T18:41:48.254Z,56.37
2022-09-28T18:44:16.025Z,56.44
2022-09-28T18:46:44.383Z,56.44
2022-09-28T18:49:11.763Z,56.21
2022-09-28T18:51:39.314Z,56.40
2022-09-28T18:54:08.343Z,56.22
2022-09-28T18:56:38.645Z,56.16
2022-09-28T18:59:11.894Z,56.05
2022-09-28T19:01:40.986Z,56.26
2022-09-28T19:04:10.909Z,56.36
2022-09-28T19:06:45.505Z,56.29
2022-09-28T19:09:13.882Z,56.28
2022-09-28T19:11:41.675Z,55.92
2022-09-28T19:14:12.585Z,56.02
2022-09-28T19:16:42.713Z,56.15
2022-09-28T19:19:13.429Z,55.80
2022-09-28T19:21:44.086Z,55.67
2022-09-28T19:24:18.128Z,55.65
2022-09-28T19:26:46.829Z,55.58
2022-09-28T19:29:17.146Z,55.38
2022-09-28T19:31:45.051Z,55.40
2022-09-28T19:34:14.433Z,55.50
2022-09-28T19:36:42.596Z,55.06
2022-09-28T19:39:14.551Z,55.02
2022-09-28T19:41:46.294Z,55.07
2022-09-28T19:44:16.033Z,54.97
2022-09-28T19:46:43.736Z,54.99
2022-09-28T19:49:19.909Z,55.50
2022-09-28T19:52:11.598Z,55.51
2022-09-28T19:54:40.967Z,56.10
2022-09-28T19:57:10.046Z,55.86
2022-09-28T19:59:38.579Z,55.61
2022-09-28T20:02:08.826Z,55.76
2022-09-28T20:04:41.030Z,55.15
2022-09-28T20:07:09.943Z,54.83
2022-09-28T20:09:37.369Z,54.85
2022-09-28T20:12:05.028Z,54.93
2022-09-28T20:14:36.562Z,54.73
2022-09-28T20:17:07.945Z,54.57
2022-09-28T20:19:38.210Z,54.83
2022-09-28T20:22:05.612Z,54.72
2022-09-28T20:24:35.971Z,54.56
2022-09-28T20:27:03.543Z,54.63
2022-09-28T20:29:32.749Z,54.59
2022-09-28T20:32:00.903Z,54.61
2022-09-28T20:34:29.153Z,54.73
2022-09-28T20:36:56.655Z,54.45
2022-09-28T20:39:23.946Z,54.28
2022-09-28T20:41:51.555Z,54.50
2022-09-28T20:44:20.291Z,54.37
2022-09-28T20:46:53.229Z,54.69
2022-09-28T20:49:21.452Z,54.57
2022-09-28T20:51:49.113Z,54.57
2022-09-28T20:54:20.640Z,54.28
2022-09-28T20:56:53.649Z,54.51
2022-09-28T20:59:23.748Z,54.65
2022-09-28T21:01:52.087Z,54.78
2022-09-28T21:04:20.518Z,54.70
2022-09-28T21:06:48.753Z,54.63
2022-09-28T21:09:16.906Z,54.52
2022-09-28T21:11:46.510Z,54.67
2022-09-28T21:14:14.583Z,54.74
2022-09-28T21:16:42.312Z,54.75
2022-09-28T21:19:09.555Z,54.87
2022-09-28T21:21:36.754Z,54.88
2022-09-28T21:24:04.318Z,55.09
2022-09-28T21:26:32.604Z,55.13
2022-09-28T21:29:01.816Z,55.18
2022-09-28T21:31:38.587Z,55.31
2022-09-28T21:34:06.444Z,55.38
2022-09-28T21:36:34.579Z,55.52
2022-09-28T21:39:01.920Z,55.47
2022-09-28T21:41:29.541Z,55.77
2022-09-28T21:43:57.253Z,55.63
2022-09-28T21:46:25.134Z,55.68
2022-09-28T21:48:56.637Z,55.71
2022-09-28T21:51:23.535Z,55.88
2022-09-28T21:53:50.533Z,55.81
2022-09-28T21:56:18.049Z,56.05
2022-09-28T21:58:45.027Z,55.90
2022-09-28T22:01:14.946Z,56.11
2022-09-28T22:03:44.355Z,56.19
2022-09-28T22:06:11.897Z,56.11
2022-09-28T22:08:39.683Z,56.28
2022-09-28T22:11:12.455Z,56.52
2022-09-28T22:13:45.166Z,56.51
2022-09-28T22:16:13.881Z,56.56
2022-09-28T22:18:41.574Z,56.89
2022-09-28T22:21:18.122Z,56.69
2022-09-28T22:23:45.708Z,56.78
2022-09-28T22:26:14.879Z,57.04
2022-09-28T22:28:47.371Z,56.97
2022-09-28T22:31:15.827Z,56.92
2022-09-28T22:33:42.857Z,57.12
2022-09-28T22:36:10.781Z,57.08
2022-09-28T22:38:38.358Z,57.13
2022-09-28T22:41:05.254Z,57.25
2022-09-28T22:43:33.672Z,57.23
2022-09-28T22:46:05.620Z,57.46
2022-09-28T22:48:33.028Z,57.47
2022-09-28T22:51:00.187Z,57.42
2022-09-28T22:53:28.663Z,57.56
2022-09-28T22:56:01.029Z,57.62
2022-09-28T22:58:28.003Z,57.58
2022-09-28T23:00:58.165Z,57.59
2022-09-28T23:03:25.061Z,57.85
2022-09-28T23:05:56.191Z,57.75
2022-09-28T23:08:24.261Z,57.86
2022-09-28T23:10:52.035Z,57.91
2022-09-28T23:13:19.587Z,57.96
2022-09-28T23:16:05.013Z,57.95
2022-09-28T23:18:35.487Z,58.12
2022-09-28T23:21:04.994Z,57.93
2022-09-28T23:23:32.450Z,58.14
2022-09-28T23:25:59.786Z,58.27
2022-09-28T23:28:27.211Z,58.27
2022-09-28T23:30:54.699Z,58.25
2022-09-28T23:33:22.168Z,58.19
2022-09-28T23:35:49.656Z,58.39
2022-09-28T23:38:18.457Z,58.43
2022-09-28T23:40:46.965Z,58.43
2022-09-28T23:43:14.687Z,58.53
2022-09-28T23:45:44.355Z,58.63
2022-09-28T23:48:13.109Z,58.77
2022-09-28T23:50:39.887Z,58.54
2022-09-28T23:53:06.920Z,58.77
2022-09-28T23:55:33.868Z,58.64
2022-09-28T23:58:00.743Z,58.82
